Jelm, WY

12:44 PM MDT on October 21, 2014 (GMT -0600)
Aspen Country | Change Station
CLOSE
Current Station
Personal Weather Station
Location: Centennial, WY
Elevation: 8050 ft
Nearby Weather Stations

Elev 8050 ft 41.29 °N, 106.15 °W | Updated 3 minutes ago

Partly Cloudy
Partly Cloudy
56.9 °F
Feels Like 56.9 °F
N
12.0
Wind Variable Wind from SE
Gusts 12.0 mph

Today
High -- | Low -- °F
--% Chance of Precip.
Yesterday
High -- | Low -- °F
Precip. -- in
7:22 AM 6:14 PM
Waning Crescent, 5% visible
Pressure 30.15 in
Visibility 10.0 miles
Clouds Scattered Clouds 5000 ft
Scattered Clouds 6000 ft
Overcast 10000 ft
Dew Point 37 °F
Humidity 47%
Rainfall 0.00 in
Snow Depth 0 in , 0 in
UV 2 out of 12
Pollen 3.00 out of 12
Air Quality Not available.
Flu Activity Sporadic
METAR K33V 211835Z AUTO 19016G23KT 10SM SCT050 SCT060 OVC100 11/02 A3015 RMK AO2

More Conditions Fewer Conditions

Pressure 30.15 in
Visibility 10.0 miles
Clouds Scattered Clouds 5000 ft
Scattered Clouds 6000 ft
Overcast 10000 ft
Dew Point 37 °F
Humidity 47%
Rainfall 0.00 in
Snow Depth 0 in , 0 in
UV 2 out of 12
Pollen 3.00 out of 12
Air Quality Not available.
Flu Activity Sporadic
METAR K33V 211835Z AUTO 19016G23KT 10SM SCT050 SCT060 OVC100 11/02 A3015 RMK AO2

More Conditions Fewer Conditions

10-Day Weather Forecast

Almanac

Astronomy

Oct. 21, 2014 Rise Set
Actual Time 7:22 AM MDT 6:14 PM MDT
Civil Twilight 6:54 AM MDT 6:42 PM MDT
Nautical Twilight 6:22 AM MDT 7:14 PM MDT
Astronomical Twilight 5:50 AM MDT 7:46 PM MDT
Moon 5:08 AM MDT 5:10 PM MDT
Length of Visible Light 11h 47m
Length of Day
10h 52m
Tomorrow will be 2m 34s shorter.
Waning Crescent, 5% of the Moon is Illuminated
Today
Waning Crescent
Oct 23
New
Oct 30
First Quarter
Nov 6
Full
Nov 14
Last Quarter

Today's Extremes

State Highs State Lows

Community

WunderPhotos

Upload Photos

1,763,742 photos uploaded!

Nearby

Snow Depth

Station Depth Elevation
Whiskey Park 0 in 8950 ft
Cinnabar Park 0 in 9690 ft
North French Creek 0 in 10130 ft
South Brush Creek 0 in 8440 ft
Sand Lake 4 in 10050 ft

Earthquake Activity

City Distance Mag. Time & Date
No recent earthquake activity has been reported nearby.
Minimum magnitude displayed is 2.5.

Coastal Water Temperatures

Place Temperature
No Stations Reporting

Nearby Weather Stations